sensor_id;sensor_type;location;lat;lon;timestamp;P1;durP1;ratioP1;P2;durP2;ratioP2
7150;SDS011;3617;48.836;9.172;2022-09-24T00:02:00;8.90;;;5.67;;
7150;SDS011;3617;48.836;9.172;2022-09-24T00:04:27;9.17;;;6.40;;
7150;SDS011;3617;48.836;9.172;2022-09-24T00:06:53;9.13;;;6.47;;
7150;SDS011;3617;48.836;9.172;2022-09-24T00:09:19;8.30;;;5.93;;
7150;SDS011;3617;48.836;9.172;2022-09-24T00:11:46;10.27;;;6.30;;
7150;SDS011;3617;48.836;9.172;2022-09-24T00:14:13;7.53;;;5.97;;
7150;SDS011;3617;48.836;9.172;2022-09-24T00:16:40;8.00;;;5.77;;
7150;SDS011;3617;48.836;9.172;2022-09-24T00:19:06;8.00;;;5.53;;
7150;SDS011;3617;48.836;9.172;2022-09-24T00:21:34;10.20;;;6.27;;
7150;SDS011;3617;48.836;9.172;2022-09-24T00:24:11;10.47;;;6.10;;
7150;SDS011;3617;48.836;9.172;2022-09-24T00:26:57;9.40;;;5.93;;
7150;SDS011;3617;48.836;9.172;2022-09-24T00:29:23;9.03;;;6.17;;
7150;SDS011;3617;48.836;9.172;2022-09-24T00:31:50;11.20;;;6.90;;
7150;SDS011;3617;48.836;9.172;2022-09-24T00:34:17;8.87;;;6.53;;
7150;SDS011;3617;48.836;9.172;2022-09-24T00:36:43;8.13;;;6.77;;
7150;SDS011;3617;48.836;9.172;2022-09-24T00:39:12;9.30;;;7.03;;
7150;SDS011;3617;48.836;9.172;2022-09-24T00:41:39;9.70;;;6.60;;
7150;SDS011;3617;48.836;9.172;2022-09-24T00:46:53;8.53;;;7.03;;
7150;SDS011;3617;48.836;9.172;2022-09-24T00:49:19;11.27;;;6.57;;
7150;SDS011;3617;48.836;9.172;2022-09-24T00:51:46;13.13;;;6.93;;
7150;SDS011;3617;48.836;9.172;2022-09-24T00:54:14;10.37;;;6.80;;
7150;SDS011;3617;48.836;9.172;2022-09-24T00:56:42;8.77;;;6.20;;
7150;SDS011;3617;48.836;9.172;2022-09-24T00:59:08;11.87;;;6.53;;
7150;SDS011;3617;48.836;9.172;2022-09-24T01:01:36;10.30;;;6.47;;
7150;SDS011;3617;48.836;9.172;2022-09-24T01:04:02;10.47;;;6.43;;
7150;SDS011;3617;48.836;9.172;2022-09-24T01:06:29;10.33;;;7.47;;
7150;SDS011;3617;48.836;9.172;2022-09-24T01:08:55;8.93;;;6.53;;
7150;SDS011;3617;48.836;9.172;2022-09-24T01:11:29;16.07;;;7.60;;
7150;SDS011;3617;48.836;9.172;2022-09-24T01:14:16;13.50;;;7.60;;
7150;SDS011;3617;48.836;9.172;2022-09-24T01:19:39;12.30;;;7.87;;
7150;SDS011;3617;48.836;9.172;2022-09-24T01:22:13;12.67;;;8.10;;
7150;SDS011;3617;48.836;9.172;2022-09-24T01:25:06;10.63;;;7.93;;
7150;SDS011;3617;48.836;9.172;2022-09-24T01:27:39;11.47;;;8.20;;
7150;SDS011;3617;48.836;9.172;2022-09-24T01:30:08;11.57;;;8.80;;
7150;SDS011;3617;48.836;9.172;2022-09-24T01:37:28;12.30;;;8.63;;
7150;SDS011;3617;48.836;9.172;2022-09-24T01:39:56;13.70;;;9.77;;
7150;SDS011;3617;48.836;9.172;2022-09-24T01:42:24;14.47;;;9.13;;
7150;SDS011;3617;48.836;9.172;2022-09-24T01:44:51;17.13;;;10.53;;
7150;SDS011;3617;48.836;9.172;2022-09-24T01:47:20;12.93;;;9.43;;
7150;SDS011;3617;48.836;9.172;2022-09-24T01:49:49;13.67;;;10.17;;
7150;SDS011;3617;48.836;9.172;2022-09-24T01:52:19;13.67;;;9.77;;
7150;SDS011;3617;48.836;9.172;2022-09-24T01:54:47;14.73;;;10.00;;
7150;SDS011;3617;48.836;9.172;2022-09-24T01:57:18;11.33;;;9.37;;
7150;SDS011;3617;48.836;9.172;2022-09-24T01:59:47;13.27;;;9.03;;
7150;SDS011;3617;48.836;9.172;2022-09-24T02:04:42;15.60;;;9.67;;
7150;SDS011;3617;48.836;9.172;2022-09-24T02:07:10;13.57;;;10.13;;
7150;SDS011;3617;48.836;9.172;2022-09-24T02:09:38;15.83;;;10.07;;
7150;SDS011;3617;48.836;9.172;2022-09-24T02:12:09;16.77;;;10.20;;
7150;SDS011;3617;48.836;9.172;2022-09-24T02:14:37;13.63;;;10.00;;
7150;SDS011;3617;48.836;9.172;2022-09-24T02:17:05;14.93;;;10.40;;
7150;SDS011;3617;48.836;9.172;2022-09-24T02:19:32;18.93;;;10.93;;
7150;SDS011;3617;48.836;9.172;2022-09-24T02:21:59;21.20;;;11.30;;
7150;SDS011;3617;48.836;9.172;2022-09-24T02:26:54;22.40;;;12.50;;
7150;SDS011;3617;48.836;9.172;2022-09-24T02:29:20;18.87;;;12.07;;
7150;SDS011;3617;48.836;9.172;2022-09-24T02:31:47;18.23;;;11.47;;
7150;SDS011;3617;48.836;9.172;2022-09-24T02:34:16;18.17;;;11.73;;
7150;SDS011;3617;48.836;9.172;2022-09-24T02:36:50;17.83;;;11.90;;
7150;SDS011;3617;48.836;9.172;2022-09-24T02:39:17;21.63;;;12.20;;
7150;SDS011;3617;48.836;9.172;2022-09-24T02:41:46;14.70;;;10.20;;
7150;SDS011;3617;48.836;9.172;2022-09-24T02:44:13;15.33;;;10.13;;
7150;SDS011;3617;48.836;9.172;2022-09-24T02:46:40;15.13;;;10.00;;
7150;SDS011;3617;48.836;9.172;2022-09-24T02:49:06;15.93;;;9.57;;
7150;SDS011;3617;48.836;9.172;2022-09-24T02:51:32;11.53;;;9.40;;
7150;SDS011;3617;48.836;9.172;2022-09-24T02:53:58;13.87;;;9.87;;
7150;SDS011;3617;48.836;9.172;2022-09-24T02:56:25;12.13;;;9.87;;
7150;SDS011;3617;48.836;9.172;2022-09-24T02:58:51;14.10;;;9.93;;
7150;SDS011;3617;48.836;9.172;2022-09-24T03:01:17;14.57;;;9.87;;
7150;SDS011;3617;48.836;9.172;2022-09-24T03:03:43;16.27;;;10.00;;
7150;SDS011;3617;48.836;9.172;2022-09-24T03:06:09;13.23;;;9.57;;
7150;SDS011;3617;48.836;9.172;2022-09-24T03:08:37;13.17;;;9.60;;
7150;SDS011;3617;48.836;9.172;2022-09-24T03:11:03;15.80;;;9.97;;
7150;SDS011;3617;48.836;9.172;2022-09-24T03:13:29;14.33;;;9.80;;
7150;SDS011;3617;48.836;9.172;2022-09-24T03:15:55;14.57;;;10.17;;
7150;SDS011;3617;48.836;9.172;2022-09-24T03:18:21;11.97;;;9.40;;
7150;SDS011;3617;48.836;9.172;2022-09-24T03:21:06;11.33;;;8.43;;
7150;SDS011;3617;48.836;9.172;2022-09-24T03:23:33;16.43;;;9.40;;
7150;SDS011;3617;48.836;9.172;2022-09-24T03:25:59;12.27;;;9.30;;
7150;SDS011;3617;48.836;9.172;2022-09-24T03:28:25;12.43;;;9.00;;
7150;SDS011;3617;48.836;9.172;2022-09-24T03:30:51;16.73;;;9.67;;
7150;SDS011;3617;48.836;9.172;2022-09-24T03:33:30;13.60;;;9.30;;
7150;SDS011;3617;48.836;9.172;2022-09-24T03:35:57;15.00;;;9.17;;
7150;SDS011;3617;48.836;9.172;2022-09-24T03:38:23;17.37;;;10.77;;
7150;SDS011;3617;48.836;9.172;2022-09-24T03:40:49;15.83;;;10.33;;
7150;SDS011;3617;48.836;9.172;2022-09-24T03:43:16;28.67;;;16.57;;
7150;SDS011;3617;48.836;9.172;2022-09-24T03:45:42;29.43;;;16.83;;
7150;SDS011;3617;48.836;9.172;2022-09-24T03:48:08;20.50;;;13.07;;
7150;SDS011;3617;48.836;9.172;2022-09-24T03:50:37;24.70;;;14.20;;
7150;SDS011;3617;48.836;9.172;2022-09-24T03:53:03;24.30;;;14.47;;
7150;SDS011;3617;48.836;9.172;2022-09-24T03:55:29;75.60;;;35.57;;
7150;SDS011;3617;48.836;9.172;2022-09-24T03:57:55;36.77;;;20.73;;
7150;SDS011;3617;48.836;9.172;2022-09-24T04:00:21;36.83;;;20.17;;
7150;SDS011;3617;48.836;9.172;2022-09-24T04:02:47;24.73;;;15.47;;
7150;SDS011;3617;48.836;9.172;2022-09-24T04:05:14;17.53;;;11.70;;
7150;SDS011;3617;48.836;9.172;2022-09-24T04:07:41;26.40;;;15.03;;
7150;SDS011;3617;48.836;9.172;2022-09-24T04:10:07;20.33;;;13.73;;
7150;SDS011;3617;48.836;9.172;2022-09-24T04:12:34;18.40;;;12.27;;
7150;SDS011;3617;48.836;9.172;2022-09-24T04:15:00;23.03;;;15.07;;
7150;SDS011;3617;48.836;9.172;2022-09-24T04:17:27;18.40;;;12.83;;
7150;SDS011;3617;48.836;9.172;2022-09-24T04:19:58;19.80;;;12.43;;
7150;SDS011;3617;48.836;9.172;2022-09-24T04:22:25;15.67;;;11.73;;
7150;SDS011;3617;48.836;9.172;2022-09-24T04:24:53;15.83;;;10.33;;
7150;SDS011;3617;48.836;9.172;2022-09-24T04:27:19;14.07;;;9.23;;
7150;SDS011;3617;48.836;9.172;2022-09-24T04:29:45;13.93;;;9.27;;
7150;SDS011;3617;48.836;9.172;2022-09-24T04:32:11;12.47;;;9.00;;
7150;SDS011;3617;48.836;9.172;2022-09-24T04:34:37;12.30;;;9.37;;
7150;SDS011;3617;48.836;9.172;2022-09-24T04:37:03;13.43;;;10.37;;
7150;SDS011;3617;48.836;9.172;2022-09-24T04:39:29;13.63;;;9.47;;
7150;SDS011;3617;48.836;9.172;2022-09-24T04:41:56;14.03;;;9.87;;
7150;SDS011;3617;48.836;9.172;2022-09-24T04:44:22;12.50;;;9.40;;
7150;SDS011;3617;48.836;9.172;2022-09-24T04:46:48;11.80;;;9.57;;
7150;SDS011;3617;48.836;9.172;2022-09-24T04:49:14;14.40;;;9.83;;
7150;SDS011;3617;48.836;9.172;2022-09-24T04:51:40;11.73;;;9.17;;
7150;SDS011;3617;48.836;9.172;2022-09-24T04:54:07;19.17;;;9.90;;
7150;SDS011;3617;48.836;9.172;2022-09-24T04:56:33;12.97;;;9.53;;
7150;SDS011;3617;48.836;9.172;2022-09-24T04:58:59;14.33;;;10.13;;
7150;SDS011;3617;48.836;9.172;2022-09-24T05:01:25;13.20;;;9.80;;
7150;SDS011;3617;48.836;9.172;2022-09-24T05:03:51;11.93;;;9.33;;
7150;SDS011;3617;48.836;9.172;2022-09-24T05:06:17;16.47;;;9.90;;
7150;SDS011;3617;48.836;9.172;2022-09-24T05:08:43;12.57;;;9.00;;
7150;SDS011;3617;48.836;9.172;2022-09-24T05:11:09;13.30;;;9.57;;
7150;SDS011;3617;48.836;9.172;2022-09-24T05:13:37;12.77;;;9.10;;
7150;SDS011;3617;48.836;9.172;2022-09-24T05:16:02;12.17;;;9.47;;
7150;SDS011;3617;48.836;9.172;2022-09-24T05:18:28;13.33;;;9.43;;
7150;SDS011;3617;48.836;9.172;2022-09-24T05:20:54;16.00;;;9.70;;
7150;SDS011;3617;48.836;9.172;2022-09-24T05:23:20;13.20;;;9.00;;
7150;SDS011;3617;48.836;9.172;2022-09-24T05:25:46;14.50;;;9.00;;
7150;SDS011;3617;48.836;9.172;2022-09-24T05:28:31;13.30;;;8.97;;
7150;SDS011;3617;48.836;9.172;2022-09-24T05:30:58;14.43;;;9.27;;
7150;SDS011;3617;48.836;9.172;2022-09-24T05:33:24;13.37;;;8.90;;
7150;SDS011;3617;48.836;9.172;2022-09-24T05:35:53;12.80;;;8.93;;
7150;SDS011;3617;48.836;9.172;2022-09-24T05:38:20;11.57;;;8.50;;
7150;SDS011;3617;48.836;9.172;2022-09-24T05:40:46;12.73;;;8.83;;
7150;SDS011;3617;48.836;9.172;2022-09-24T05:43:12;14.27;;;9.53;;
7150;SDS011;3617;48.836;9.172;2022-09-24T05:45:38;12.73;;;8.80;;
7150;SDS011;3617;48.836;9.172;2022-09-24T05:48:05;14.00;;;9.13;;
7150;SDS011;3617;48.836;9.172;2022-09-24T05:50:32;13.03;;;9.20;;
7150;SDS011;3617;48.836;9.172;2022-09-24T05:52:59;11.83;;;9.03;;
7150;SDS011;3617;48.836;9.172;2022-09-24T05:55:25;11.50;;;9.07;;
7150;SDS011;3617;48.836;9.172;2022-09-24T05:57:51;12.67;;;9.23;;
7150;SDS011;3617;48.836;9.172;2022-09-24T06:00:18;13.13;;;9.63;;
7150;SDS011;3617;48.836;9.172;2022-09-24T06:02:44;12.17;;;9.10;;
7150;SDS011;3617;48.836;9.172;2022-09-24T06:05:11;13.73;;;9.30;;
7150;SDS011;3617;48.836;9.172;2022-09-24T06:07:37;9.80;;;8.63;;
7150;SDS011;3617;48.836;9.172;2022-09-24T06:10:04;14.57;;;9.40;;
7150;SDS011;3617;48.836;9.172;2022-09-24T06:12:31;12.07;;;8.80;;
7150;SDS011;3617;48.836;9.172;2022-09-24T06:14:59;12.10;;;9.50;;
7150;SDS011;3617;48.836;9.172;2022-09-24T06:17:25;12.77;;;8.97;;
7150;SDS011;3617;48.836;9.172;2022-09-24T06:19:52;12.23;;;8.77;;
7150;SDS011;3617;48.836;9.172;2022-09-24T06:22:19;11.73;;;8.60;;
7150;SDS011;3617;48.836;9.172;2022-09-24T06:24:45;10.13;;;8.13;;
7150;SDS011;3617;48.836;9.172;2022-09-24T06:27:11;11.03;;;8.67;;
7150;SDS011;3617;48.836;9.172;2022-09-24T06:29:37;12.47;;;8.93;;
7150;SDS011;3617;48.836;9.172;2022-09-24T06:32:03;12.77;;;8.80;;
7150;SDS011;3617;48.836;9.172;2022-09-24T06:34:29;11.27;;;8.50;;
7150;SDS011;3617;48.836;9.172;2022-09-24T06:36:55;12.33;;;9.00;;
7150;SDS011;3617;48.836;9.172;2022-09-24T06:39:21;13.17;;;8.67;;
7150;SDS011;3617;48.836;9.172;2022-09-24T06:41:48;13.60;;;8.90;;
7150;SDS011;3617;48.836;9.172;2022-09-24T06:44:15;11.80;;;9.00;;
7150;SDS011;3617;48.836;9.172;2022-09-24T06:46:41;12.30;;;8.53;;
7150;SDS011;3617;48.836;9.172;2022-09-24T06:49:07;14.83;;;9.10;;
7150;SDS011;3617;48.836;9.172;2022-09-24T06:51:33;11.97;;;8.20;;
7150;SDS011;3617;48.836;9.172;2022-09-24T06:53:59;10.50;;;8.13;;
7150;SDS011;3617;48.836;9.172;2022-09-24T06:56:25;11.43;;;8.13;;
7150;SDS011;3617;48.836;9.172;2022-09-24T06:58:51;12.73;;;8.97;;
7150;SDS011;3617;48.836;9.172;2022-09-24T07:01:18;10.60;;;7.80;;
7150;SDS011;3617;48.836;9.172;2022-09-24T07:03:44;11.80;;;8.73;;
7150;SDS011;3617;48.836;9.172;2022-09-24T07:06:10;11.70;;;8.20;;
7150;SDS011;3617;48.836;9.172;2022-09-24T07:08:36;10.23;;;8.37;;
7150;SDS011;3617;48.836;9.172;2022-09-24T07:11:02;12.63;;;8.10;;
7150;SDS011;3617;48.836;9.172;2022-09-24T07:13:28;10.93;;;8.47;;
7150;SDS011;3617;48.836;9.172;2022-09-24T07:15:54;12.27;;;8.13;;
7150;SDS011;3617;48.836;9.172;2022-09-24T07:18:20;9.53;;;7.37;;
7150;SDS011;3617;48.836;9.172;2022-09-24T07:20:50;13.20;;;8.20;;
7150;SDS011;3617;48.836;9.172;2022-09-24T07:23:16;12.33;;;7.80;;
7150;SDS011;3617;48.836;9.172;2022-09-24T07:25:42;12.40;;;8.00;;
7150;SDS011;3617;48.836;9.172;2022-09-24T07:28:11;10.30;;;8.17;;
7150;SDS011;3617;48.836;9.172;2022-09-24T07:30:37;10.63;;;8.50;;
7150;SDS011;3617;48.836;9.172;2022-09-24T07:33:04;11.40;;;7.90;;
7150;SDS011;3617;48.836;9.172;2022-09-24T07:35:31;11.13;;;7.67;;
7150;SDS011;3617;48.836;9.172;2022-09-24T07:38:04;9.77;;;7.37;;
7150;SDS011;3617;48.836;9.172;2022-09-24T07:40:31;10.87;;;8.30;;
7150;SDS011;3617;48.836;9.172;2022-09-24T07:42:57;9.83;;;7.87;;
7150;SDS011;3617;48.836;9.172;2022-09-24T07:45:24;9.57;;;7.93;;
7150;SDS011;3617;48.836;9.172;2022-09-24T07:47:58;11.57;;;8.13;;
7150;SDS011;3617;48.836;9.172;2022-09-24T07:50:25;9.83;;;8.03;;
7150;SDS011;3617;48.836;9.172;2022-09-24T07:52:51;9.10;;;7.73;;
7150;SDS011;3617;48.836;9.172;2022-09-24T07:55:18;14.27;;;8.37;;
7150;SDS011;3617;48.836;9.172;2022-09-24T07:57:50;9.17;;;7.43;;
7150;SDS011;3617;48.836;9.172;2022-09-24T08:00:17;10.63;;;7.60;;
7150;SDS011;3617;48.836;9.172;2022-09-24T08:02:43;9.53;;;7.40;;
7150;SDS011;3617;48.836;9.172;2022-09-24T08:05:10;10.40;;;7.83;;
7150;SDS011;3617;48.836;9.172;2022-09-24T08:07:36;11.90;;;7.87;;
7150;SDS011;3617;48.836;9.172;2022-09-24T08:10:02;9.77;;;7.60;;
7150;SDS011;3617;48.836;9.172;2022-09-24T08:12:28;9.10;;;7.47;;
7150;SDS011;3617;48.836;9.172;2022-09-24T08:14:54;10.37;;;7.97;;
7150;SDS011;3617;48.836;9.172;2022-09-24T08:17:20;8.93;;;7.10;;
7150;SDS011;3617;48.836;9.172;2022-09-24T08:19:46;9.53;;;7.23;;
7150;SDS011;3617;48.836;9.172;2022-09-24T08:22:12;10.53;;;7.63;;
7150;SDS011;3617;48.836;9.172;2022-09-24T08:24:39;10.30;;;7.53;;
7150;SDS011;3617;48.836;9.172;2022-09-24T08:27:06;9.47;;;6.90;;
7150;SDS011;3617;48.836;9.172;2022-09-24T08:29:32;10.03;;;7.80;;
7150;SDS011;3617;48.836;9.172;2022-09-24T08:31:58;9.57;;;7.50;;
7150;SDS011;3617;48.836;9.172;2022-09-24T08:34:24;9.27;;;7.50;;
7150;SDS011;3617;48.836;9.172;2022-09-24T08:36:50;9.63;;;7.20;;
7150;SDS011;3617;48.836;9.172;2022-09-24T08:39:16;11.50;;;6.97;;
7150;SDS011;3617;48.836;9.172;2022-09-24T08:41:53;8.60;;;6.50;;
7150;SDS011;3617;48.836;9.172;2022-09-24T08:47:35;10.73;;;6.87;;
7150;SDS011;3617;48.836;9.172;2022-09-24T08:50:16;8.37;;;6.50;;
7150;SDS011;3617;48.836;9.172;2022-09-24T08:57:59;9.57;;;6.43;;
7150;SDS011;3617;48.836;9.172;2022-09-24T09:00:31;9.87;;;6.20;;
7150;SDS011;3617;48.836;9.172;2022-09-24T09:03:22;8.80;;;5.77;;
7150;SDS011;3617;48.836;9.172;2022-09-24T09:05:54;9.97;;;6.77;;
7150;SDS011;3617;48.836;9.172;2022-09-24T09:11:00;8.67;;;6.17;;
7150;SDS011;3617;48.836;9.172;2022-09-24T09:13:29;9.03;;;6.40;;
7150;SDS011;3617;48.836;9.172;2022-09-24T09:16:06;7.97;;;5.97;;
7150;SDS011;3617;48.836;9.172;2022-09-24T09:18:38;6.95;;;5.55;;
7150;SDS011;3617;48.836;9.172;2022-09-24T09:21:11;6.68;;;5.20;;
7150;SDS011;3617;48.836;9.172;2022-09-24T09:23:41;8.40;;;6.00;;
7150;SDS011;3617;48.836;9.172;2022-09-24T09:26:10;6.45;;;5.60;;
7150;SDS011;3617;48.836;9.172;2022-09-24T09:28:36;6.68;;;5.38;;
7150;SDS011;3617;48.836;9.172;2022-09-24T09:36:26;4.82;;;3.83;;
7150;SDS011;3617;48.836;9.172;2022-09-24T09:39:11;6.32;;;3.97;;
7150;SDS011;3617;48.836;9.172;2022-09-24T09:44:19;5.75;;;3.85;;
7150;SDS011;3617;48.836;9.172;2022-09-24T09:49:37;5.13;;;3.83;;
7150;SDS011;3617;48.836;9.172;2022-09-24T09:52:05;5.40;;;3.92;;
7150;SDS011;3617;48.836;9.172;2022-09-24T09:54:37;5.65;;;4.22;;
7150;SDS011;3617;48.836;9.172;2022-09-24T09:57:04;5.45;;;4.45;;
7150;SDS011;3617;48.836;9.172;2022-09-24T09:59:30;4.85;;;3.90;;
7150;SDS011;3617;48.836;9.172;2022-09-24T10:01:58;2.80;;;2.30;;
7150;SDS011;3617;48.836;9.172;2022-09-24T10:09:59;3.20;;;2.25;;
7150;SDS011;3617;48.836;9.172;2022-09-24T10:12:26;3.17;;;2.50;;
7150;SDS011;3617;48.836;9.172;2022-09-24T10:17:51;3.60;;;2.70;;
7150;SDS011;3617;48.836;9.172;2022-09-24T10:20:29;3.30;;;2.30;;
7150;SDS011;3617;48.836;9.172;2022-09-24T10:22:57;2.60;;;1.90;;
7150;SDS011;3617;48.836;9.172;2022-09-24T10:25:25;3.33;;;2.47;;
7150;SDS011;3617;48.836;9.172;2022-09-24T10:27:52;3.53;;;2.47;;
7150;SDS011;3617;48.836;9.172;2022-09-24T10:30:19;4.60;;;2.40;;
7150;SDS011;3617;48.836;9.172;2022-09-24T10:32:58;4.13;;;2.70;;
7150;SDS011;3617;48.836;9.172;2022-09-24T10:37:54;4.87;;;2.50;;
7150;SDS011;3617;48.836;9.172;2022-09-24T10:40:21;3.43;;;2.80;;
7150;SDS011;3617;48.836;9.172;2022-09-24T10:42:56;2.60;;;2.40;;
7150;SDS011;3617;48.836;9.172;2022-09-24T10:45:23;3.33;;;2.67;;
7150;SDS011;3617;48.836;9.172;2022-09-24T10:47:56;2.43;;;2.23;;
7150;SDS011;3617;48.836;9.172;2022-09-24T10:50:26;3.60;;;2.53;;
7150;SDS011;3617;48.836;9.172;2022-09-24T10:53:10;2.90;;;2.40;;
7150;SDS011;3617;48.836;9.172;2022-09-24T10:58:20;2.80;;;2.50;;
7150;SDS011;3617;48.836;9.172;2022-09-24T11:22:13;5.63;;;2.72;;
7150;SDS011;3617;48.836;9.172;2022-09-24T11:27:27;5.23;;;3.63;;
7150;SDS011;3617;48.836;9.172;2022-09-24T11:42:59;2.63;;;1.87;;
7150;SDS011;3617;48.836;9.172;2022-09-24T11:48:07;2.40;;;1.93;;
7150;SDS011;3617;48.836;9.172;2022-09-24T11:50:44;2.53;;;1.98;;
7150;SDS011;3617;48.836;9.172;2022-09-24T11:55:46;3.50;;;2.10;;
7150;SDS011;3617;48.836;9.172;2022-09-24T12:00:45;2.70;;;2.10;;
7150;SDS011;3617;48.836;9.172;2022-09-24T12:03:19;2.73;;;2.30;;
7150;SDS011;3617;48.836;9.172;2022-09-24T12:08:21;3.20;;;2.20;;
7150;SDS011;3617;48.836;9.172;2022-09-24T12:10:53;3.23;;;2.37;;
7150;SDS011;3617;48.836;9.172;2022-09-24T12:13:23;2.90;;;2.33;;
7150;SDS011;3617;48.836;9.172;2022-09-24T12:15:53;2.67;;;2.23;;
7150;SDS011;3617;48.836;9.172;2022-09-24T12:18:35;3.97;;;2.30;;
7150;SDS011;3617;48.836;9.172;2022-09-24T12:21:09;3.63;;;2.30;;
7150;SDS011;3617;48.836;9.172;2022-09-24T12:23:37;3.03;;;2.53;;
7150;SDS011;3617;48.836;9.172;2022-09-24T12:26:04;3.57;;;2.73;;
7150;SDS011;3617;48.836;9.172;2022-09-24T12:28:34;3.70;;;2.50;;
7150;SDS011;3617;48.836;9.172;2022-09-24T12:31:28;3.13;;;2.50;;
7150;SDS011;3617;48.836;9.172;2022-09-24T12:39:27;4.50;;;2.80;;
7150;SDS011;3617;48.836;9.172;2022-09-24T12:41:58;4.97;;;3.13;;
7150;SDS011;3617;48.836;9.172;2022-09-24T12:44:28;4.47;;;3.23;;
7150;SDS011;3617;48.836;9.172;2022-09-24T12:46:57;6.07;;;3.30;;
7150;SDS011;3617;48.836;9.172;2022-09-24T12:51:53;6.87;;;3.63;;
7150;SDS011;3617;48.836;9.172;2022-09-24T12:54:26;5.87;;;4.03;;
7150;SDS011;3617;48.836;9.172;2022-09-24T12:57:10;5.47;;;3.57;;
7150;SDS011;3617;48.836;9.172;2022-09-24T12:59:48;7.23;;;4.20;;
7150;SDS011;3617;48.836;9.172;2022-09-24T13:02:19;7.47;;;4.00;;
7150;SDS011;3617;48.836;9.172;2022-09-24T13:04:48;4.37;;;3.97;;
7150;SDS011;3617;48.836;9.172;2022-09-24T13:07:27;7.13;;;3.77;;
7150;SDS011;3617;48.836;9.172;2022-09-24T13:09:53;5.90;;;3.70;;
7150;SDS011;3617;48.836;9.172;2022-09-24T13:12:20;4.80;;;3.83;;
7150;SDS011;3617;48.836;9.172;2022-09-24T13:14:54;6.07;;;4.03;;
7150;SDS011;3617;48.836;9.172;2022-09-24T13:17:21;4.93;;;3.77;;
7150;SDS011;3617;48.836;9.172;2022-09-24T13:19:47;6.10;;;3.70;;
7150;SDS011;3617;48.836;9.172;2022-09-24T13:22:19;5.27;;;4.07;;
7150;SDS011;3617;48.836;9.172;2022-09-24T13:24:48;4.97;;;4.03;;
7150;SDS011;3617;48.836;9.172;2022-09-24T13:30:04;7.63;;;4.00;;
7150;SDS011;3617;48.836;9.172;2022-09-24T13:32:31;7.37;;;4.23;;
7150;SDS011;3617;48.836;9.172;2022-09-24T13:35:01;5.97;;;4.70;;
7150;SDS011;3617;48.836;9.172;2022-09-24T13:37:32;5.43;;;4.40;;
7150;SDS011;3617;48.836;9.172;2022-09-24T13:40:04;6.63;;;4.80;;
7150;SDS011;3617;48.836;9.172;2022-09-24T13:42:41;8.53;;;5.50;;
7150;SDS011;3617;48.836;9.172;2022-09-24T13:45:12;8.83;;;5.57;;
7150;SDS011;3617;48.836;9.172;2022-09-24T13:47:41;7.13;;;5.27;;
7150;SDS011;3617;48.836;9.172;2022-09-24T13:50:19;7.10;;;5.40;;
7150;SDS011;3617;48.836;9.172;2022-09-24T13:52:53;7.67;;;4.87;;
7150;SDS011;3617;48.836;9.172;2022-09-24T13:55:30;8.40;;;5.50;;
7150;SDS011;3617;48.836;9.172;2022-09-24T13:57:57;6.23;;;4.83;;
7150;SDS011;3617;48.836;9.172;2022-09-24T14:02:53;7.27;;;4.90;;
7150;SDS011;3617;48.836;9.172;2022-09-24T14:05:20;6.90;;;5.33;;
7150;SDS011;3617;48.836;9.172;2022-09-24T14:07:53;8.17;;;5.07;;
7150;SDS011;3617;48.836;9.172;2022-09-24T14:10:20;10.60;;;5.50;;
7150;SDS011;3617;48.836;9.172;2022-09-24T14:12:57;6.60;;;4.90;;
7150;SDS011;3617;48.836;9.172;2022-09-24T14:15:23;6.90;;;4.90;;
7150;SDS011;3617;48.836;9.172;2022-09-24T14:17:57;7.57;;;5.20;;
7150;SDS011;3617;48.836;9.172;2022-09-24T14:20:24;7.63;;;5.40;;
7150;SDS011;3617;48.836;9.172;2022-09-24T14:22:51;6.97;;;5.10;;
7150;SDS011;3617;48.836;9.172;2022-09-24T14:25:35;5.77;;;4.57;;
7150;SDS011;3617;48.836;9.172;2022-09-24T14:28:03;6.30;;;4.93;;
7150;SDS011;3617;48.836;9.172;2022-09-24T14:30:30;6.17;;;4.83;;
7150;SDS011;3617;48.836;9.172;2022-09-24T14:33:02;8.23;;;5.13;;
7150;SDS011;3617;48.836;9.172;2022-09-24T14:35:33;8.93;;;5.40;;
7150;SDS011;3617;48.836;9.172;2022-09-24T14:38:03;6.50;;;5.23;;
7150;SDS011;3617;48.836;9.172;2022-09-24T14:40:42;6.60;;;4.80;;
7150;SDS011;3617;48.836;9.172;2022-09-24T14:43:51;7.10;;;5.40;;
7150;SDS011;3617;48.836;9.172;2022-09-24T14:46:00;7.97;;;6.07;;
7150;SDS011;3617;48.836;9.172;2022-09-24T14:48:27;7.20;;;5.47;;
7150;SDS011;3617;48.836;9.172;2022-09-24T14:50:54;6.57;;;5.60;;
7150;SDS011;3617;48.836;9.172;2022-09-24T14:53:21;8.80;;;5.00;;
7150;SDS011;3617;48.836;9.172;2022-09-24T14:55:48;10.57;;;5.30;;
7150;SDS011;3617;48.836;9.172;2022-09-24T14:58:21;7.70;;;5.70;;
7150;SDS011;3617;48.836;9.172;2022-09-24T15:00:49;8.07;;;5.93;;
7150;SDS011;3617;48.836;9.172;2022-09-24T15:03:16;8.83;;;5.47;;
7150;SDS011;3617;48.836;9.172;2022-09-24T15:05:44;8.50;;;5.37;;
7150;SDS011;3617;48.836;9.172;2022-09-24T15:08:20;7.37;;;5.70;;
7150;SDS011;3617;48.836;9.172;2022-09-24T15:10:53;7.90;;;5.50;;
7150;SDS011;3617;48.836;9.172;2022-09-24T15:13:24;7.63;;;5.40;;
7150;SDS011;3617;48.836;9.172;2022-09-24T15:18:29;7.47;;;5.63;;
7150;SDS011;3617;48.836;9.172;2022-09-24T15:20:55;7.37;;;5.73;;
7150;SDS011;3617;48.836;9.172;2022-09-24T15:23:23;6.30;;;5.03;;
7150;SDS011;3617;48.836;9.172;2022-09-24T15:25:49;8.97;;;5.77;;
7150;SDS011;3617;48.836;9.172;2022-09-24T15:28:15;7.03;;;5.50;;
7150;SDS011;3617;48.836;9.172;2022-09-24T15:30:41;8.87;;;6.00;;
7150;SDS011;3617;48.836;9.172;2022-09-24T15:33:09;8.30;;;6.07;;
7150;SDS011;3617;48.836;9.172;2022-09-24T15:35:35;8.73;;;6.10;;
7150;SDS011;3617;48.836;9.172;2022-09-24T15:38:01;9.70;;;6.30;;
7150;SDS011;3617;48.836;9.172;2022-09-24T15:40:27;7.93;;;6.03;;
7150;SDS011;3617;48.836;9.172;2022-09-24T15:43:00;8.33;;;5.80;;
7150;SDS011;3617;48.836;9.172;2022-09-24T15:45:26;6.40;;;5.50;;
7150;SDS011;3617;48.836;9.172;2022-09-24T15:47:52;9.33;;;5.70;;
7150;SDS011;3617;48.836;9.172;2022-09-24T15:50:21;8.03;;;5.70;;
7150;SDS011;3617;48.836;9.172;2022-09-24T15:52:55;7.27;;;5.77;;
7150;SDS011;3617;48.836;9.172;2022-09-24T15:55:23;8.07;;;5.97;;
7150;SDS011;3617;48.836;9.172;2022-09-24T15:57:49;6.90;;;5.40;;
7150;SDS011;3617;48.836;9.172;2022-09-24T16:00:19;7.03;;;5.77;;
7150;SDS011;3617;48.836;9.172;2022-09-24T16:02:47;8.23;;;5.40;;
7150;SDS011;3617;48.836;9.172;2022-09-24T16:05:14;11.10;;;5.80;;
7150;SDS011;3617;48.836;9.172;2022-09-24T16:07:41;9.47;;;5.87;;
7150;SDS011;3617;48.836;9.172;2022-09-24T16:10:07;7.40;;;5.20;;
7150;SDS011;3617;48.836;9.172;2022-09-24T16:12:33;7.97;;;5.33;;
7150;SDS011;3617;48.836;9.172;2022-09-24T16:15:00;7.93;;;5.40;;
7150;SDS011;3617;48.836;9.172;2022-09-24T16:17:26;7.07;;;5.20;;
7150;SDS011;3617;48.836;9.172;2022-09-24T16:19:52;7.93;;;5.33;;
7150;SDS011;3617;48.836;9.172;2022-09-24T16:22:18;6.77;;;5.10;;
7150;SDS011;3617;48.836;9.172;2022-09-24T16:24:44;8.50;;;5.70;;
7150;SDS011;3617;48.836;9.172;2022-09-24T16:27:10;6.83;;;5.10;;
7150;SDS011;3617;48.836;9.172;2022-09-24T16:29:36;6.90;;;4.93;;
7150;SDS011;3617;48.836;9.172;2022-09-24T16:32:02;7.57;;;5.50;;
7150;SDS011;3617;48.836;9.172;2022-09-24T16:34:28;8.87;;;5.43;;
7150;SDS011;3617;48.836;9.172;2022-09-24T16:36:55;6.93;;;5.60;;
7150;SDS011;3617;48.836;9.172;2022-09-24T16:39:21;6.93;;;5.40;;
7150;SDS011;3617;48.836;9.172;2022-09-24T16:41:47;7.40;;;5.50;;
7150;SDS011;3617;48.836;9.172;2022-09-24T16:44:13;7.20;;;5.33;;
7150;SDS011;3617;48.836;9.172;2022-09-24T16:46:39;6.50;;;5.27;;
7150;SDS011;3617;48.836;9.172;2022-09-24T16:49:06;7.63;;;5.30;;
7150;SDS011;3617;48.836;9.172;2022-09-24T16:51:32;9.43;;;5.50;;
7150;SDS011;3617;48.836;9.172;2022-09-24T16:53:58;8.00;;;5.47;;
7150;SDS011;3617;48.836;9.172;2022-09-24T16:56:24;6.80;;;5.30;;
7150;SDS011;3617;48.836;9.172;2022-09-24T16:58:50;6.43;;;5.57;;
7150;SDS011;3617;48.836;9.172;2022-09-24T17:01:17;9.77;;;6.43;;
7150;SDS011;3617;48.836;9.172;2022-09-24T17:03:44;8.93;;;6.40;;
7150;SDS011;3617;48.836;9.172;2022-09-24T17:06:18;7.20;;;6.40;;
7150;SDS011;3617;48.836;9.172;2022-09-24T17:08:44;10.57;;;6.50;;
7150;SDS011;3617;48.836;9.172;2022-09-24T17:11:29;7.90;;;6.57;;